sensor_id;sensor_type;location;lat;lon;timestamp;P1;durP1;ratioP1;P2;durP2;ratioP2
18170;SDS011;9210;48.358;10.902;2023-03-01T00:01:32;34.27;;;16.83;;
18170;SDS011;9210;48.358;10.902;2023-03-01T00:04:00;38.50;;;18.00;;
18170;SDS011;9210;48.358;10.902;2023-03-01T00:06:30;40.70;;;18.90;;
18170;SDS011;9210;48.358;10.902;2023-03-01T00:08:59;34.60;;;17.37;;
18170;SDS011;9210;48.358;10.902;2023-03-01T00:11:28;34.93;;;17.30;;
18170;SDS011;9210;48.358;10.902;2023-03-01T00:13:57;34.63;;;16.83;;
18170;SDS011;9210;48.358;10.902;2023-03-01T00:16:27;33.67;;;16.60;;
18170;SDS011;9210;48.358;10.902;2023-03-01T00:18:57;34.83;;;16.73;;
18170;SDS011;9210;48.358;10.902;2023-03-01T00:21:26;36.30;;;18.07;;
18170;SDS011;9210;48.358;10.902;2023-03-01T00:23:56;35.60;;;17.47;;
18170;SDS011;9210;48.358;10.902;2023-03-01T00:26:25;37.07;;;17.47;;
18170;SDS011;9210;48.358;10.902;2023-03-01T00:28:56;34.93;;;17.00;;
18170;SDS011;9210;48.358;10.902;2023-03-01T00:31:26;32.00;;;16.13;;
18170;SDS011;9210;48.358;10.902;2023-03-01T00:33:55;35.83;;;17.23;;
18170;SDS011;9210;48.358;10.902;2023-03-01T00:36:25;40.17;;;17.17;;
18170;SDS011;9210;48.358;10.902;2023-03-01T00:38:56;35.47;;;17.63;;
18170;SDS011;9210;48.358;10.902;2023-03-01T00:41:25;37.83;;;17.47;;
18170;SDS011;9210;48.358;10.902;2023-03-01T00:43:54;33.70;;;16.40;;
18170;SDS011;9210;48.358;10.902;2023-03-01T00:46:23;37.40;;;17.70;;
18170;SDS011;9210;48.358;10.902;2023-03-01T00:48:52;34.67;;;16.73;;
18170;SDS011;9210;48.358;10.902;2023-03-01T00:51:22;35.53;;;17.53;;
18170;SDS011;9210;48.358;10.902;2023-03-01T00:53:50;35.83;;;17.60;;
18170;SDS011;9210;48.358;10.902;2023-03-01T00:56:20;37.27;;;17.60;;
18170;SDS011;9210;48.358;10.902;2023-03-01T00:58:49;35.13;;;17.50;;
18170;SDS011;9210;48.358;10.902;2023-03-01T01:01:18;32.47;;;16.13;;
18170;SDS011;9210;48.358;10.902;2023-03-01T01:03:48;38.43;;;16.97;;
18170;SDS011;9210;48.358;10.902;2023-03-01T01:06:18;36.63;;;17.00;;
18170;SDS011;9210;48.358;10.902;2023-03-01T01:08:48;37.27;;;16.53;;
18170;SDS011;9210;48.358;10.902;2023-03-01T01:11:17;34.87;;;15.87;;
18170;SDS011;9210;48.358;10.902;2023-03-01T01:13:47;37.33;;;17.67;;
18170;SDS011;9210;48.358;10.902;2023-03-01T01:16:16;37.47;;;17.13;;
18170;SDS011;9210;48.358;10.902;2023-03-01T01:18:45;36.03;;;16.90;;
18170;SDS011;9210;48.358;10.902;2023-03-01T01:21:14;36.70;;;17.30;;
18170;SDS011;9210;48.358;10.902;2023-03-01T01:23:43;38.27;;;17.57;;
18170;SDS011;9210;48.358;10.902;2023-03-01T01:26:13;35.07;;;16.30;;
18170;SDS011;9210;48.358;10.902;2023-03-01T01:28:41;33.17;;;17.23;;
18170;SDS011;9210;48.358;10.902;2023-03-01T01:31:11;34.40;;;16.67;;
18170;SDS011;9210;48.358;10.902;2023-03-01T01:33:40;37.33;;;17.93;;
18170;SDS011;9210;48.358;10.902;2023-03-01T01:36:08;40.43;;;18.20;;
18170;SDS011;9210;48.358;10.902;2023-03-01T01:38:37;36.13;;;17.23;;
18170;SDS011;9210;48.358;10.902;2023-03-01T01:41:06;36.33;;;18.00;;
18170;SDS011;9210;48.358;10.902;2023-03-01T01:43:35;37.93;;;17.60;;
18170;SDS011;9210;48.358;10.902;2023-03-01T01:46:04;37.03;;;17.53;;
18170;SDS011;9210;48.358;10.902;2023-03-01T01:48:37;38.07;;;17.90;;
18170;SDS011;9210;48.358;10.902;2023-03-01T01:51:09;39.00;;;18.13;;
18170;SDS011;9210;48.358;10.902;2023-03-01T01:53:38;39.23;;;18.10;;
18170;SDS011;9210;48.358;10.902;2023-03-01T01:56:08;37.63;;;17.20;;
18170;SDS011;9210;48.358;10.902;2023-03-01T01:58:37;37.93;;;17.77;;
18170;SDS011;9210;48.358;10.902;2023-03-01T02:01:06;33.70;;;16.60;;
18170;SDS011;9210;48.358;10.902;2023-03-01T02:03:37;37.97;;;17.43;;
18170;SDS011;9210;48.358;10.902;2023-03-01T02:06:12;39.93;;;18.07;;
18170;SDS011;9210;48.358;10.902;2023-03-01T02:08:40;41.27;;;18.93;;
18170;SDS011;9210;48.358;10.902;2023-03-01T02:11:10;38.27;;;18.37;;
18170;SDS011;9210;48.358;10.902;2023-03-01T02:13:41;38.23;;;17.63;;
18170;SDS011;9210;48.358;10.902;2023-03-01T02:16:10;38.27;;;17.93;;
18170;SDS011;9210;48.358;10.902;2023-03-01T02:18:41;41.83;;;19.57;;
18170;SDS011;9210;48.358;10.902;2023-03-01T02:21:13;39.07;;;18.30;;
18170;SDS011;9210;48.358;10.902;2023-03-01T02:23:45;38.33;;;18.47;;
18170;SDS011;9210;48.358;10.902;2023-03-01T02:26:23;37.97;;;18.53;;
18170;SDS011;9210;48.358;10.902;2023-03-01T02:28:55;44.33;;;18.97;;
18170;SDS011;9210;48.358;10.902;2023-03-01T02:31:25;39.53;;;19.40;;
18170;SDS011;9210;48.358;10.902;2023-03-01T02:34:11;37.03;;;17.30;;
18170;SDS011;9210;48.358;10.902;2023-03-01T02:36:40;36.97;;;18.93;;
18170;SDS011;9210;48.358;10.902;2023-03-01T02:39:12;38.73;;;18.90;;
18170;SDS011;9210;48.358;10.902;2023-03-01T02:41:45;38.53;;;17.97;;
18170;SDS011;9210;48.358;10.902;2023-03-01T02:44:16;39.00;;;17.93;;
18170;SDS011;9210;48.358;10.902;2023-03-01T02:46:45;41.83;;;19.33;;
18170;SDS011;9210;48.358;10.902;2023-03-01T02:49:18;38.93;;;18.30;;
18170;SDS011;9210;48.358;10.902;2023-03-01T02:51:51;44.80;;;19.20;;
18170;SDS011;9210;48.358;10.902;2023-03-01T02:54:23;38.70;;;17.77;;
18170;SDS011;9210;48.358;10.902;2023-03-01T02:56:53;40.80;;;19.37;;
18170;SDS011;9210;48.358;10.902;2023-03-01T02:59:24;42.00;;;18.50;;
18170;SDS011;9210;48.358;10.902;2023-03-01T03:01:55;40.87;;;18.77;;
18170;SDS011;9210;48.358;10.902;2023-03-01T03:04:23;37.60;;;17.93;;
18170;SDS011;9210;48.358;10.902;2023-03-01T03:06:52;39.33;;;19.00;;
18170;SDS011;9210;48.358;10.902;2023-03-01T03:09:20;39.93;;;19.17;;
18170;SDS011;9210;48.358;10.902;2023-03-01T03:11:48;40.73;;;19.07;;
18170;SDS011;9210;48.358;10.902;2023-03-01T03:14:17;39.77;;;19.07;;
18170;SDS011;9210;48.358;10.902;2023-03-01T03:16:49;38.00;;;18.63;;
18170;SDS011;9210;48.358;10.902;2023-03-01T03:19:18;39.73;;;19.13;;
18170;SDS011;9210;48.358;10.902;2023-03-01T03:21:47;40.57;;;18.47;;
18170;SDS011;9210;48.358;10.902;2023-03-01T03:24:15;40.30;;;19.10;;
18170;SDS011;9210;48.358;10.902;2023-03-01T03:26:44;39.97;;;17.80;;
18170;SDS011;9210;48.358;10.902;2023-03-01T03:29:13;38.73;;;18.73;;
18170;SDS011;9210;48.358;10.902;2023-03-01T03:31:41;39.07;;;18.17;;
18170;SDS011;9210;48.358;10.902;2023-03-01T03:34:11;39.20;;;18.93;;
18170;SDS011;9210;48.358;10.902;2023-03-01T03:36:44;44.07;;;18.33;;
18170;SDS011;9210;48.358;10.902;2023-03-01T03:39:12;40.17;;;18.87;;
18170;SDS011;9210;48.358;10.902;2023-03-01T03:41:41;37.90;;;17.67;;
18170;SDS011;9210;48.358;10.902;2023-03-01T03:44:11;42.17;;;18.60;;
18170;SDS011;9210;48.358;10.902;2023-03-01T03:46:39;39.23;;;18.47;;
18170;SDS011;9210;48.358;10.902;2023-03-01T03:49:08;38.03;;;18.40;;
18170;SDS011;9210;48.358;10.902;2023-03-01T03:51:37;37.03;;;18.40;;
18170;SDS011;9210;48.358;10.902;2023-03-01T03:54:06;42.53;;;18.50;;
18170;SDS011;9210;48.358;10.902;2023-03-01T03:56:34;39.97;;;19.17;;
18170;SDS011;9210;48.358;10.902;2023-03-01T03:59:05;41.30;;;19.10;;
18170;SDS011;9210;48.358;10.902;2023-03-01T04:01:33;44.07;;;19.23;;
18170;SDS011;9210;48.358;10.902;2023-03-01T04:04:02;38.80;;;18.00;;
18170;SDS011;9210;48.358;10.902;2023-03-01T04:06:30;35.03;;;18.40;;
18170;SDS011;9210;48.358;10.902;2023-03-01T04:09:01;41.33;;;18.23;;
18170;SDS011;9210;48.358;10.902;2023-03-01T04:11:29;41.67;;;19.27;;
18170;SDS011;9210;48.358;10.902;2023-03-01T04:13:57;41.30;;;19.10;;
18170;SDS011;9210;48.358;10.902;2023-03-01T04:16:26;41.40;;;19.10;;
18170;SDS011;9210;48.358;10.902;2023-03-01T04:18:56;42.33;;;19.47;;
18170;SDS011;9210;48.358;10.902;2023-03-01T04:21:26;36.90;;;18.03;;
18170;SDS011;9210;48.358;10.902;2023-03-01T04:23:54;39.43;;;18.97;;
18170;SDS011;9210;48.358;10.902;2023-03-01T04:26:24;39.90;;;18.73;;
18170;SDS011;9210;48.358;10.902;2023-03-01T04:28:53;38.67;;;18.53;;
18170;SDS011;9210;48.358;10.902;2023-03-01T04:31:21;41.87;;;19.10;;
18170;SDS011;9210;48.358;10.902;2023-03-01T04:33:51;40.93;;;18.30;;
18170;SDS011;9210;48.358;10.902;2023-03-01T04:36:20;38.47;;;18.00;;
18170;SDS011;9210;48.358;10.902;2023-03-01T04:38:50;37.00;;;18.73;;
18170;SDS011;9210;48.358;10.902;2023-03-01T04:41:19;40.20;;;19.20;;
18170;SDS011;9210;48.358;10.902;2023-03-01T04:43:49;49.90;;;20.20;;
18170;SDS011;9210;48.358;10.902;2023-03-01T04:46:18;45.20;;;19.50;;
18170;SDS011;9210;48.358;10.902;2023-03-01T04:48:47;42.87;;;18.97;;
18170;SDS011;9210;48.358;10.902;2023-03-01T04:51:15;40.97;;;18.87;;
18170;SDS011;9210;48.358;10.902;2023-03-01T04:53:44;43.73;;;19.27;;
18170;SDS011;9210;48.358;10.902;2023-03-01T04:56:13;43.67;;;19.37;;
18170;SDS011;9210;48.358;10.902;2023-03-01T04:58:42;38.77;;;18.73;;
18170;SDS011;9210;48.358;10.902;2023-03-01T05:01:12;39.17;;;19.33;;
18170;SDS011;9210;48.358;10.902;2023-03-01T05:03:42;40.03;;;18.20;;
18170;SDS011;9210;48.358;10.902;2023-03-01T05:06:11;41.30;;;18.87;;
18170;SDS011;9210;48.358;10.902;2023-03-01T05:08:40;40.00;;;18.47;;
18170;SDS011;9210;48.358;10.902;2023-03-01T05:11:09;37.97;;;18.40;;
18170;SDS011;9210;48.358;10.902;2023-03-01T05:13:38;37.53;;;19.00;;
18170;SDS011;9210;48.358;10.902;2023-03-01T05:16:07;41.77;;;20.00;;
18170;SDS011;9210;48.358;10.902;2023-03-01T05:18:39;45.43;;;19.97;;
18170;SDS011;9210;48.358;10.902;2023-03-01T05:21:08;43.60;;;19.70;;
18170;SDS011;9210;48.358;10.902;2023-03-01T05:23:37;40.63;;;19.63;;
18170;SDS011;9210;48.358;10.902;2023-03-01T05:26:06;41.23;;;18.50;;
18170;SDS011;9210;48.358;10.902;2023-03-01T05:28:52;43.07;;;19.73;;
18170;SDS011;9210;48.358;10.902;2023-03-01T05:31:25;39.90;;;18.70;;
18170;SDS011;9210;48.358;10.902;2023-03-01T05:33:55;41.67;;;19.63;;
18170;SDS011;9210;48.358;10.902;2023-03-01T05:36:24;39.90;;;19.40;;
18170;SDS011;9210;48.358;10.902;2023-03-01T05:38:52;43.43;;;19.30;;
18170;SDS011;9210;48.358;10.902;2023-03-01T05:41:22;41.20;;;19.30;;
18170;SDS011;9210;48.358;10.902;2023-03-01T05:43:50;43.77;;;20.00;;
18170;SDS011;9210;48.358;10.902;2023-03-01T05:46:18;45.23;;;20.73;;
18170;SDS011;9210;48.358;10.902;2023-03-01T05:48:47;49.90;;;21.17;;
18170;SDS011;9210;48.358;10.902;2023-03-01T05:51:17;44.73;;;21.07;;
18170;SDS011;9210;48.358;10.902;2023-03-01T05:53:45;46.20;;;20.33;;
18170;SDS011;9210;48.358;10.902;2023-03-01T05:56:13;45.77;;;20.87;;
18170;SDS011;9210;48.358;10.902;2023-03-01T05:58:42;41.43;;;20.07;;
18170;SDS011;9210;48.358;10.902;2023-03-01T06:01:11;40.70;;;19.63;;
18170;SDS011;9210;48.358;10.902;2023-03-01T06:03:40;49.97;;;20.60;;
18170;SDS011;9210;48.358;10.902;2023-03-01T06:06:08;46.87;;;21.10;;
18170;SDS011;9210;48.358;10.902;2023-03-01T06:08:38;46.37;;;21.47;;
18170;SDS011;9210;48.358;10.902;2023-03-01T06:11:06;43.70;;;20.50;;
18170;SDS011;9210;48.358;10.902;2023-03-01T06:13:35;44.53;;;20.17;;
18170;SDS011;9210;48.358;10.902;2023-03-01T06:16:04;45.07;;;20.77;;
18170;SDS011;9210;48.358;10.902;2023-03-01T06:18:33;46.80;;;21.07;;
18170;SDS011;9210;48.358;10.902;2023-03-01T06:21:02;46.10;;;20.27;;
18170;SDS011;9210;48.358;10.902;2023-03-01T06:23:31;48.87;;;20.93;;
18170;SDS011;9210;48.358;10.902;2023-03-01T06:26:00;46.23;;;20.80;;
18170;SDS011;9210;48.358;10.902;2023-03-01T06:28:29;46.47;;;20.10;;
18170;SDS011;9210;48.358;10.902;2023-03-01T06:30:57;46.27;;;20.40;;
18170;SDS011;9210;48.358;10.902;2023-03-01T06:33:26;45.47;;;21.00;;
18170;SDS011;9210;48.358;10.902;2023-03-01T06:35:54;49.10;;;21.80;;
18170;SDS011;9210;48.358;10.902;2023-03-01T06:38:23;46.63;;;20.67;;
18170;SDS011;9210;48.358;10.902;2023-03-01T06:40:52;47.17;;;20.77;;
18170;SDS011;9210;48.358;10.902;2023-03-01T06:43:22;46.37;;;20.57;;
18170;SDS011;9210;48.358;10.902;2023-03-01T06:45:51;47.33;;;20.83;;
18170;SDS011;9210;48.358;10.902;2023-03-01T06:48:19;47.03;;;20.37;;
18170;SDS011;9210;48.358;10.902;2023-03-01T06:50:48;52.40;;;22.17;;
18170;SDS011;9210;48.358;10.902;2023-03-01T06:53:16;50.00;;;21.20;;
18170;SDS011;9210;48.358;10.902;2023-03-01T06:55:45;46.93;;;20.43;;
18170;SDS011;9210;48.358;10.902;2023-03-01T06:58:13;50.53;;;20.90;;
18170;SDS011;9210;48.358;10.902;2023-03-01T07:00:43;48.60;;;20.93;;
18170;SDS011;9210;48.358;10.902;2023-03-01T07:03:11;48.10;;;21.23;;
18170;SDS011;9210;48.358;10.902;2023-03-01T07:05:40;51.87;;;21.33;;
18170;SDS011;9210;48.358;10.902;2023-03-01T07:08:09;47.57;;;21.27;;
18170;SDS011;9210;48.358;10.902;2023-03-01T07:10:37;43.37;;;20.20;;
18170;SDS011;9210;48.358;10.902;2023-03-01T07:13:05;45.20;;;20.57;;
18170;SDS011;9210;48.358;10.902;2023-03-01T07:15:34;45.00;;;20.50;;
18170;SDS011;9210;48.358;10.902;2023-03-01T07:18:04;55.17;;;20.77;;
18170;SDS011;9210;48.358;10.902;2023-03-01T07:20:32;43.73;;;20.17;;
18170;SDS011;9210;48.358;10.902;2023-03-01T07:23:01;40.20;;;20.43;;
18170;SDS011;9210;48.358;10.902;2023-03-01T07:25:29;47.27;;;20.47;;
18170;SDS011;9210;48.358;10.902;2023-03-01T07:27:58;43.00;;;20.27;;
18170;SDS011;9210;48.358;10.902;2023-03-01T07:30:27;45.70;;;18.80;;
18170;SDS011;9210;48.358;10.902;2023-03-01T07:32:56;43.37;;;19.80;;
18170;SDS011;9210;48.358;10.902;2023-03-01T07:35:27;44.50;;;20.50;;
18170;SDS011;9210;48.358;10.902;2023-03-01T07:37:55;45.57;;;19.93;;
18170;SDS011;9210;48.358;10.902;2023-03-01T07:40:24;41.87;;;19.70;;
18170;SDS011;9210;48.358;10.902;2023-03-01T07:42:54;43.90;;;19.77;;
18170;SDS011;9210;48.358;10.902;2023-03-01T07:45:24;38.00;;;19.03;;
18170;SDS011;9210;48.358;10.902;2023-03-01T07:47:53;44.80;;;20.60;;
18170;SDS011;9210;48.358;10.902;2023-03-01T07:50:22;43.67;;;21.07;;
18170;SDS011;9210;48.358;10.902;2023-03-01T07:52:52;47.93;;;21.10;;
18170;SDS011;9210;48.358;10.902;2023-03-01T07:55:20;45.40;;;19.80;;
18170;SDS011;9210;48.358;10.902;2023-03-01T07:57:49;42.07;;;20.37;;
18170;SDS011;9210;48.358;10.902;2023-03-01T08:00:18;44.13;;;19.97;;
18170;SDS011;9210;48.358;10.902;2023-03-01T08:02:46;49.83;;;20.17;;
18170;SDS011;9210;48.358;10.902;2023-03-01T08:05:15;48.33;;;19.90;;
18170;SDS011;9210;48.358;10.902;2023-03-01T08:07:43;40.83;;;18.40;;
18170;SDS011;9210;48.358;10.902;2023-03-01T08:10:13;41.13;;;18.60;;
18170;SDS011;9210;48.358;10.902;2023-03-01T08:12:42;40.30;;;18.23;;
18170;SDS011;9210;48.358;10.902;2023-03-01T08:15:10;45.70;;;18.73;;
18170;SDS011;9210;48.358;10.902;2023-03-01T08:17:39;45.77;;;19.80;;
18170;SDS011;9210;48.358;10.902;2023-03-01T08:20:08;37.77;;;17.70;;
18170;SDS011;9210;48.358;10.902;2023-03-01T08:22:39;44.33;;;18.50;;
18170;SDS011;9210;48.358;10.902;2023-03-01T08:25:07;41.63;;;19.27;;
18170;SDS011;9210;48.358;10.902;2023-03-01T08:27:37;41.90;;;18.43;;
18170;SDS011;9210;48.358;10.902;2023-03-01T08:30:07;41.57;;;19.60;;
18170;SDS011;9210;48.358;10.902;2023-03-01T08:32:36;39.83;;;19.27;;
18170;SDS011;9210;48.358;10.902;2023-03-01T08:35:05;38.10;;;18.60;;
18170;SDS011;9210;48.358;10.902;2023-03-01T08:37:34;36.83;;;18.13;;
18170;SDS011;9210;48.358;10.902;2023-03-01T08:40:02;37.83;;;18.27;;
18170;SDS011;9210;48.358;10.902;2023-03-01T08:42:33;43.57;;;19.30;;
18170;SDS011;9210;48.358;10.902;2023-03-01T08:45:03;37.57;;;18.40;;
18170;SDS011;9210;48.358;10.902;2023-03-01T08:47:32;42.33;;;19.13;;
18170;SDS011;9210;48.358;10.902;2023-03-01T08:50:01;40.47;;;18.43;;
18170;SDS011;9210;48.358;10.902;2023-03-01T08:52:30;42.47;;;19.00;;
18170;SDS011;9210;48.358;10.902;2023-03-01T08:55:00;45.73;;;20.23;;
18170;SDS011;9210;48.358;10.902;2023-03-01T08:57:28;42.17;;;19.90;;
18170;SDS011;9210;48.358;10.902;2023-03-01T08:59:57;38.90;;;19.20;;
18170;SDS011;9210;48.358;10.902;2023-03-01T09:02:27;38.27;;;18.73;;
18170;SDS011;9210;48.358;10.902;2023-03-01T09:04:55;38.97;;;19.23;;
18170;SDS011;9210;48.358;10.902;2023-03-01T09:07:24;43.07;;;18.93;;
18170;SDS011;9210;48.358;10.902;2023-03-01T09:09:55;38.87;;;18.00;;
18170;SDS011;9210;48.358;10.902;2023-03-01T09:12:23;45.37;;;19.30;;
18170;SDS011;9210;48.358;10.902;2023-03-01T09:14:52;41.93;;;18.30;;
18170;SDS011;9210;48.358;10.902;2023-03-01T09:17:20;41.80;;;19.27;;
18170;SDS011;9210;48.358;10.902;2023-03-01T09:19:50;39.90;;;19.17;;
18170;SDS011;9210;48.358;10.902;2023-03-01T09:22:19;40.27;;;18.37;;
18170;SDS011;9210;48.358;10.902;2023-03-01T09:24:47;40.10;;;18.43;;
18170;SDS011;9210;48.358;10.902;2023-03-01T09:27:15;39.00;;;18.10;;
18170;SDS011;9210;48.358;10.902;2023-03-01T09:29:46;39.10;;;18.17;;
18170;SDS011;9210;48.358;10.902;2023-03-01T09:32:14;41.60;;;18.33;;
18170;SDS011;9210;48.358;10.902;2023-03-01T09:34:43;42.13;;;19.70;;
18170;SDS011;9210;48.358;10.902;2023-03-01T09:37:33;41.27;;;18.57;;
18170;SDS011;9210;48.358;10.902;2023-03-01T09:40:02;42.00;;;19.57;;
18170;SDS011;9210;48.358;10.902;2023-03-01T09:42:32;42.97;;;19.03;;
18170;SDS011;9210;48.358;10.902;2023-03-01T09:45:01;40.23;;;19.27;;
18170;SDS011;9210;48.358;10.902;2023-03-01T09:47:32;44.03;;;19.23;;
18170;SDS011;9210;48.358;10.902;2023-03-01T09:50:02;44.17;;;19.33;;
18170;SDS011;9210;48.358;10.902;2023-03-01T09:52:38;49.93;;;20.33;;
18170;SDS011;9210;48.358;10.902;2023-03-01T09:55:09;46.10;;;20.67;;
18170;SDS011;9210;48.358;10.902;2023-03-01T09:57:41;43.73;;;18.97;;
18170;SDS011;9210;48.358;10.902;2023-03-01T10:00:26;46.23;;;20.53;;
18170;SDS011;9210;48.358;10.902;2023-03-01T10:02:58;42.40;;;19.47;;
18170;SDS011;9210;48.358;10.902;2023-03-01T10:05:30;48.40;;;20.33;;
18170;SDS011;9210;48.358;10.902;2023-03-01T10:08:25;40.00;;;18.73;;
18170;SDS011;9210;48.358;10.902;2023-03-01T10:10:57;40.63;;;18.90;;
18170;SDS011;9210;48.358;10.902;2023-03-01T10:13:28;38.30;;;18.27;;
18170;SDS011;9210;48.358;10.902;2023-03-01T10:15:59;36.90;;;19.00;;
18170;SDS011;9210;48.358;10.902;2023-03-01T10:18:30;42.27;;;19.03;;
18170;SDS011;9210;48.358;10.902;2023-03-01T10:21:07;43.27;;;19.13;;
18170;SDS011;9210;48.358;10.902;2023-03-01T10:23:39;36.27;;;17.77;;
18170;SDS011;9210;48.358;10.902;2023-03-01T10:26:11;40.23;;;19.73;;
18170;SDS011;9210;48.358;10.902;2023-03-01T10:28:44;36.73;;;18.40;;
18170;SDS011;9210;48.358;10.902;2023-03-01T10:31:16;36.60;;;18.30;;
18170;SDS011;9210;48.358;10.902;2023-03-01T10:33:48;36.60;;;17.87;;
18170;SDS011;9210;48.358;10.902;2023-03-01T10:36:21;40.07;;;19.63;;
18170;SDS011;9210;48.358;10.902;2023-03-01T10:38:51;37.93;;;18.87;;
18170;SDS011;9210;48.358;10.902;2023-03-01T10:41:21;33.57;;;18.23;;
18170;SDS011;9210;48.358;10.902;2023-03-01T10:43:51;36.93;;;18.33;;
18170;SDS011;9210;48.358;10.902;2023-03-01T10:46:24;35.10;;;17.50;;
18170;SDS011;9210;48.358;10.902;2023-03-01T10:49:05;39.50;;;18.20;;
18170;SDS011;9210;48.358;10.902;2023-03-01T10:51:33;35.17;;;18.73;;
18170;SDS011;9210;48.358;10.902;2023-03-01T10:54:09;34.90;;;17.53;;
18170;SDS011;9210;48.358;10.902;2023-03-01T10:56:46;36.07;;;18.30;;
18170;SDS011;9210;48.358;10.902;2023-03-01T10:59:22;35.97;;;19.10;;
18170;SDS011;9210;48.358;10.902;2023-03-01T11:02:01;37.87;;;17.50;;
18170;SDS011;9210;48.358;10.902;2023-03-01T11:04:42;37.97;;;19.03;;
18170;SDS011;9210;48.358;10.902;2023-03-01T11:07:24;41.17;;;19.97;;
18170;SDS011;9210;48.358;10.902;2023-03-01T11:09:53;37.13;;;18.33;;
18170;SDS011;9210;48.358;10.902;2023-03-01T11:12:22;40.50;;;17.77;;
18170;SDS011;9210;48.358;10.902;2023-03-01T11:14:53;36.60;;;19.30;;
18170;SDS011;9210;48.358;10.902;2023-03-01T11:17:23;37.23;;;18.80;;
18170;SDS011;9210;48.358;10.902;2023-03-01T11:20:01;40.50;;;18.70;;
18170;SDS011;9210;48.358;10.902;2023-03-01T11:22:31;36.63;;;18.77;;
18170;SDS011;9210;48.358;10.902;2023-03-01T11:25:02;34.80;;;18.47;;
18170;SDS011;9210;48.358;10.902;2023-03-01T11:27:37;38.77;;;18.67;;
18170;SDS011;9210;48.358;10.902;2023-03-01T11:30:13;34.17;;;17.60;;
18170;SDS011;9210;48.358;10.902;2023-03-01T11:32:45;35.53;;;18.70;;
18170;SDS011;9210;48.358;10.902;2023-03-01T11:35:17;35.60;;;17.47;;
18170;SDS011;9210;48.358;10.902;2023-03-01T11:37:50;36.50;;;18.83;;
18170;SDS011;9210;48.358;10.902;2023-03-01T11:40:26;36.47;;;18.70;;
18170;SDS011;9210;48.358;10.902;2023-03-01T11:43:06;37.50;;;17.53;;
18170;SDS011;9210;48.358;10.902;2023-03-01T11:45:42;35.83;;;19.20;;
18170;SDS011;9210;48.358;10.902;2023-03-01T11:48:17;35.13;;;18.37;;
18170;SDS011;9210;48.358;10.902;2023-03-01T11:51:00;36.50;;;18.20;;
18170;SDS011;9210;48.358;10.902;2023-03-01T11:53:36;40.60;;;18.77;;
18170;SDS011;9210;48.358;10.902;2023-03-01T11:56:15;36.63;;;19.13;;
18170;SDS011;9210;48.358;10.902;2023-03-01T11:59:02;34.73;;;18.53;;
18170;SDS011;9210;48.358;10.902;2023-03-01T12:01:33;39.17;;;19.07;;
18170;SDS011;9210;48.358;10.902;2023-03-01T12:06:55;35.40;;;18.03;;
18170;SDS011;9210;48.358;10.902;2023-03-01T12:09:35;33.63;;;18.00;;
18170;SDS011;9210;48.358;10.902;2023-03-01T12:12:18;37.77;;;18.00;;
18170;SDS011;9210;48.358;10.902;2023-03-01T12:14:54;42.40;;;18.73;;
18170;SDS011;9210;48.358;10.902;2023-03-01T12:17:31;36.93;;;17.67;;
18170;SDS011;9210;48.358;10.902;2023-03-01T12:20:05;35.90;;;18.30;;
18170;SDS011;9210;48.358;10.902;2023-03-01T12:22:38;32.27;;;16.80;;
18170;SDS011;9210;48.358;10.902;2023-03-01T12:30:56;36.80;;;18.07;;
18170;SDS011;9210;48.358;10.902;2023-03-01T12:33:30;33.00;;;17.63;;
18170;SDS011;9210;48.358;10.902;2023-03-01T12:36:07;35.40;;;18.17;;
18170;SDS011;9210;48.358;10.902;2023-03-01T12:38:40;35.57;;;18.00;;
18170;SDS011;9210;48.358;10.902;2023-03-01T12:44:05;35.27;;;17.63;;
18170;SDS011;9210;48.358;10.902;2023-03-01T12:46:44;33.57;;;18.17;;
18170;SDS011;9210;48.358;10.902;2023-03-01T12:49:15;37.23;;;18.40;;
18170;SDS011;9210;48.358;10.902;2023-03-01T12:51:50;35.03;;;17.90;;
18170;SDS011;9210;48.358;10.902;2023-03-01T12:54:22;37.33;;;18.90;;
18170;SDS011;9210;48.358;10.902;2023-03-01T12:56:54;33.90;;;17.23;;
18170;SDS011;9210;48.358;10.902;2023-03-01T12:59:24;38.90;;;17.47;;
18170;SDS011;9210;48.358;10.902;2023-03-01T13:01:59;33.67;;;17.80;;
18170;SDS011;9210;48.358;10.902;2023-03-01T13:04:33;36.83;;;17.50;;
18170;SDS011;9210;48.358;10.902;2023-03-01T13:07:07;31.80;;;17.03;;
18170;SDS011;9210;48.358;10.902;2023-03-01T13:09:40;35.87;;;17.07;;
18170;SDS011;9210;48.358;10.902;2023-03-01T13:14:59;35.30;;;17.70;;
18170;SDS011;9210;48.358;10.902;2023-03-01T13:17:33;36.77;;;16.70;;
18170;SDS011;9210;48.358;10.902;2023-03-01T13:22:40;34.40;;;16.87;;
18170;SDS011;9210;48.358;10.902;2023-03-01T13:25:20;37.27;;;16.97;;
18170;SDS011;9210;48.358;10.902;2023-03-01T13:30:55;32.10;;;16.47;;
18170;SDS011;9210;48.358;10.902;2023-03-01T13:39:13;34.27;;;16.97;;
18170;SDS011;9210;48.358;10.902;2023-03-01T13:41:55;34.77;;;17.67;;
18170;SDS011;9210;48.358;10.902;2023-03-01T13:44:24;35.73;;;16.47;;
18170;SDS011;9210;48.358;10.902;2023-03-01T13:46:56;34.93;;;16.63;;
18170;SDS011;9210;48.358;10.902;2023-03-01T13:49:27;32.77;;;16.83;;
18170;SDS011;9210;48.358;10.902;2023-03-01T13:52:27;33.30;;;16.00;;
18170;SDS011;9210;48.358;10.902;2023-03-01T13:54:58;36.93;;;16.80;;
18170;SDS011;9210;48.358;10.902;2023-03-01T13:57:31;34.73;;;17.10;;
18170;SDS011;9210;48.358;10.902;2023-03-01T14:00:02;33.40;;;16.17;;
18170;SDS011;9210;48.358;10.902;2023-03-01T14:02:33;30.60;;;15.33;;
18170;SDS011;9210;48.358;10.902;2023-03-01T14:05:03;31.67;;;15.53;;
18170;SDS011;9210;48.358;10.902;2023-03-01T14:07:31;30.90;;;15.83;;
18170;SDS011;9210;48.358;10.902;2023-03-01T14:10:02;33.87;;;16.43;;
18170;SDS011;9210;48.358;10.902;2023-03-01T14:12:38;29.07;;;15.17;;
18170;SDS011;9210;48.358;10.902;2023-03-01T14:15:08;28.13;;;15.47;;
18170;SDS011;9210;48.358;10.902;2023-03-01T14:17:41;31.90;;;15.60;;
18170;SDS011;9210;48.358;10.902;2023-03-01T14:20:12;30.03;;;15.70;;
18170;SDS011;9210;48.358;10.902;2023-03-01T14:22:42;32.93;;;14.63;;
18170;SDS011;9210;48.358;10.902;2023-03-01T14:25:21;28.37;;;14.90;;
18170;SDS011;9210;48.358;10.902;2023-03-01T14:27:54;29.57;;;15.40;;
18170;SDS011;9210;48.358;10.902;2023-03-01T14:30:23;29.43;;;15.57;;
18170;SDS011;9210;48.358;10.902;2023-03-01T14:32:52;30.50;;;15.97;;
18170;SDS011;9210;48.358;10.902;2023-03-01T14:35:22;33.90;;;16.57;;
18170;SDS011;9210;48.358;10.902;2023-03-01T14:37:51;29.53;;;15.80;;
18170;SDS011;9210;48.358;10.902;2023-03-01T14:40:21;31.70;;;15.93;;
18170;SDS011;9210;48.358;10.902;2023-03-01T14:42:50;33.87;;;16.33;;
18170;SDS011;9210;48.358;10.902;2023-03-01T14:45:25;33.57;;;16.63;;
18170;SDS011;9210;48.358;10.902;2023-03-01T14:47:54;31.43;;;16.40;;
18170;SDS011;9210;48.358;10.902;2023-03-01T14:50:24;32.90;;;16.43;;
18170;SDS011;9210;48.358;10.902;2023-03-01T14:52:54;30.30;;;15.90;;
18170;SDS011;9210;48.358;10.902;2023-03-01T14:55:25;34.47;;;15.63;;
18170;SDS011;9210;48.358;10.902;2023-03-01T14:57:55;33.50;;;16.00;;
18170;SDS011;9210;48.358;10.902;2023-03-01T15:00:27;31.10;;;15.20;;
18170;SDS011;9210;48.358;10.902;2023-03-01T15:03:07;32.40;;;16.13;;
18170;SDS011;9210;48.358;10.902;2023-03-01T15:05:40;31.67;;;15.50;;
18170;SDS011;9210;48.358;10.902;2023-03-01T15:08:11;34.17;;;15.73;;